Time,TemperatureF,DewpointF,PressureIn,WindDirection,WindDirectionDegrees,WindSpeedMPH,WindSpeedGustMPH,Humidity,HourlyPrecipIn,Conditions,Clouds,dailyrainin,SoftwareType,DateUTC
2013-06-14 00:02:00,79.0,75.0,29.83,West,267,0.0,1.0,88,0.00,,,0.00,,2013-06-14 05:02:00,
2013-06-14 00:11:00,79.0,75.0,29.82,SW,224,0.0,3.0,88,0.00,,,0.00,,2013-06-14 05:11:00,
2013-06-14 00:22:00,79.0,75.0,29.83,WSW,245,0.0,1.0,88,0.00,,,0.00,,2013-06-14 05:22:00,
2013-06-14 00:34:00,79.0,75.0,29.83,WSW,245,0.0,1.0,88,0.00,,,0.00,,2013-06-14 05:34:00,
2013-06-14 00:43:00,79.0,75.0,29.84,WNW,285,0.0,3.0,88,0.00,,,0.00,,2013-06-14 05:43:00,
2013-06-14 00:52:00,79.0,75.0,29.83,WSW,246,1.0,4.0,88,0.00,,,0.00,,2013-06-14 05:52:00,
2013-06-14 01:02:00,79.0,75.0,29.83,WSW,246,1.0,4.0,88,0.00,,,0.00,,2013-06-14 06:02:00,
2013-06-14 01:12:00,79.0,75.0,29.82,WSW,253,1.0,5.0,88,0.00,,,0.00,,2013-06-14 06:12:00,
2013-06-14 01:22:00,79.0,75.0,29.85,West,281,0.0,4.0,88,0.00,,,0.00,,2013-06-14 06:22:00,
2013-06-14 01:33:00,79.0,75.0,29.83,WNW,300,0.0,1.0,88,0.00,,,0.00,,2013-06-14 06:33:00,
2013-06-14 01:43:00,79.0,75.0,29.83,WNW,300,0.0,1.0,88,0.00,,,0.00,,2013-06-14 06:43:00,
2013-06-14 01:52:00,78.0,75.0,29.85,ENE,77,0.0,1.0,92,0.03,,,0.03,,2013-06-14 06:52:00,
2013-06-14 02:02:00,76.0,74.0,29.85,ESE,123,1.0,5.0,93,0.10,,,0.10,,2013-06-14 07:02:00,
2013-06-14 02:12:00,75.0,73.0,29.83,ESE,117,0.0,2.0,95,0.15,,,0.15,,2013-06-14 07:12:00,
2013-06-14 02:22:00,75.0,73.0,29.83,ESE,117,0.0,2.0,95,0.15,,,0.15,,2013-06-14 07:22:00,
2013-06-14 02:33:00,75.0,73.0,29.82,South,170,0.0,1.0,95,0.15,,,0.15,,2013-06-14 07:33:00,
2013-06-14 02:43:00,75.0,73.0,29.82,South,170,0.0,1.0,95,0.15,,,0.15,,2013-06-14 07:43:00,
2013-06-14 02:53:00,75.0,74.0,29.81,SW,231,1.0,2.0,96,0.12,,,0.15,,2013-06-14 07:53:00,
2013-06-14 03:02:00,74.0,73.0,29.81,WNW,284,2.0,5.0,96,0.04,,,0.15,,2013-06-14 08:02:00,
2013-06-14 03:12:00,74.0,73.0,29.81,WNW,284,2.0,5.0,96,0.04,,,0.15,,2013-06-14 08:12:00,
2013-06-14 03:23:00,74.0,73.0,29.80,WSW,257,1.0,4.0,96,0.00,,,0.15,,2013-06-14 08:23:00,
2013-06-14 03:33:00,73.0,71.0,29.80,SW,221,2.0,8.0,95,0.00,,,0.15,,2013-06-14 08:33:00,
2013-06-14 03:43:00,73.0,71.0,29.80,SW,221,2.0,8.0,95,0.00,,,0.15,,2013-06-14 08:43:00,
2013-06-14 03:53:00,72.0,70.0,29.79,West,262,3.0,8.0,93,0.00,,,0.15,,2013-06-14 08:53:00,
2013-06-14 04:02:00,72.0,70.0,29.80,WNW,300,0.0,3.0,94,0.00,,,0.15,,2013-06-14 09:02:00,
2013-06-14 04:12:00,72.0,70.0,29.80,WNW,300,0.0,3.0,94,0.00,,,0.15,,2013-06-14 09:12:00,
2013-06-14 04:22:00,72.0,70.0,29.80,WNW,285,1.0,5.0,93,0.00,,,0.15,,2013-06-14 09:22:00,
2013-06-14 04:33:00,71.0,69.0,29.79,West,271,0.0,1.0,94,0.00,,,0.15,,2013-06-14 09:33:00,
2013-06-14 04:43:00,71.0,69.0,29.79,West,271,0.0,1.0,94,0.00,,,0.15,,2013-06-14 09:43:00,
2013-06-14 04:53:00,70.0,68.0,29.79,WNW,295,0.0,0.0,95,0.00,,,0.15,,2013-06-14 09:53:00,
2013-06-14 05:01:00,70.0,68.0,29.79,WNW,295,0.0,0.0,95,0.00,,,0.15,,2013-06-14 10:01:00,
2013-06-14 05:12:00,70.0,69.0,29.78,West,271,0.0,1.0,96,0.00,,,0.15,,2013-06-14 10:12:00,
2013-06-14 05:22:00,70.0,69.0,29.78,West,271,0.0,0.0,96,0.00,,,0.15,,2013-06-14 10:22:00,
2013-06-14 05:34:00,69.0,68.0,29.78,WNW,293,0.0,1.0,96,0.00,,,0.15,,2013-06-14 10:34:00,
2013-06-14 05:43:00,69.0,68.0,29.78,WNW,293,0.0,1.0,96,0.00,,,0.15,,2013-06-14 10:43:00,
2013-06-14 05:53:00,69.0,68.0,29.79,WNW,293,0.0,0.0,96,0.00,,,0.15,,2013-06-14 10:53:00,
2013-06-14 06:02:00,69.0,68.0,29.79,WNW,293,0.0,0.0,96,0.00,,,0.15,,2013-06-14 11:02:00,
2013-06-14 06:11:00,69.0,68.0,29.79,WNW,293,0.0,0.0,97,0.00,,,0.15,,2013-06-14 11:11:00,
2013-06-14 06:23:00,69.0,68.0,29.80,WNW,293,0.0,0.0,97,0.00,,,0.15,,2013-06-14 11:23:00,
2013-06-14 06:32:00,69.0,68.0,29.80,WNW,293,0.0,0.0,97,0.00,,,0.15,,2013-06-14 11:32:00,
2013-06-14 06:43:00,70.0,69.0,29.80,WSW,245,0.0,0.0,97,0.00,,,0.15,,2013-06-14 11:43:00,
2013-06-14 06:52:00,70.0,69.0,29.80,West,259,0.0,0.0,97,0.00,,,0.15,,2013-06-14 11:52:00,
2013-06-14 07:02:00,70.0,69.0,29.80,West,259,0.0,0.0,97,0.00,,,0.15,,2013-06-14 12:02:00,
2013-06-14 07:12:00,71.0,70.0,29.81,West,267,0.0,2.0,97,0.00,,,0.15,,2013-06-14 12:12:00,
2013-06-14 07:22:00,72.0,71.0,29.82,West,273,0.0,2.0,97,0.00,,,0.15,,2013-06-14 12:22:00,
2013-06-14 07:33:00,72.0,71.0,29.82,West,273,0.0,2.0,97,0.00,,,0.15,,2013-06-14 12:33:00,
2013-06-14 07:43:00,73.0,72.0,29.83,West,269,0.0,2.0,96,0.00,,,0.15,,2013-06-14 12:43:00,
2013-06-14 07:52:00,74.0,73.0,29.83,West,269,0.0,2.0,96,0.00,,,0.15,,2013-06-14 12:52:00,
2013-06-14 08:02:00,74.0,73.0,29.83,West,269,0.0,2.0,96,0.00,,,0.15,,2013-06-14 13:02:00,
2013-06-14 08:11:00,75.0,73.0,29.83,West,277,0.0,2.0,95,0.00,,,0.15,,2013-06-14 13:11:00,
2013-06-14 08:22:00,75.0,73.0,29.84,SSW,201,0.0,2.0,95,0.00,,,0.15,,2013-06-14 13:22:00,
2013-06-14 08:33:00,75.0,73.0,29.84,SSW,201,0.0,2.0,95,0.00,,,0.15,,2013-06-14 13:33:00,
2013-06-14 08:43:00,76.0,74.0,29.85,SSE,162,0.0,1.0,95,0.00,,,0.15,,2013-06-14 13:43:00,
2013-06-14 08:53:00,76.0,74.0,29.85,SSW,210,0.0,2.0,94,0.00,,,0.15,,2013-06-14 13:53:00,
2013-06-14 09:02:00,76.0,74.0,29.85,SSW,210,0.0,2.0,94,0.00,,,0.15,,2013-06-14 14:02:00,
2013-06-14 09:11:00,77.0,75.0,29.85,SSW,200,0.0,4.0,93,0.00,,,0.15,,2013-06-14 14:11:00,
2013-06-14 09:22:00,77.0,74.0,29.85,East,94,0.0,2.0,92,0.00,,,0.15,,2013-06-14 14:22:00,
2013-06-14 09:34:00,77.0,74.0,29.85,East,94,0.0,2.0,92,0.00,,,0.15,,2013-06-14 14:34:00,
2013-06-14 09:43:00,77.0,74.0,29.86,SSW,198,0.0,1.0,92,0.00,,,0.15,,2013-06-14 14:43:00,
2013-06-14 09:52:00,77.0,74.0,29.86,WSW,248,0.0,2.0,92,0.00,,,0.15,,2013-06-14 14:52:00,
2013-06-14 10:02:00,77.0,74.0,29.86,WSW,248,0.0,2.0,92,0.00,,,0.15,,2013-06-14 15:02:00,
2013-06-14 10:11:00,78.0,75.0,29.86,ESE,111,0.0,4.0,92,0.00,,,0.15,,2013-06-14 15:11:00,
2013-06-14 10:23:00,78.0,75.0,29.86,NNE,33,1.0,4.0,91,0.00,,,0.15,,2013-06-14 15:23:00,
2013-06-14 10:33:00,78.0,75.0,29.86,NNE,33,1.0,4.0,91,0.00,,,0.15,,2013-06-14 15:33:00,
2013-06-14 10:44:00,79.0,75.0,29.86,ESE,120,1.0,8.0,88,0.00,,,0.15,,2013-06-14 15:44:00,
2013-06-14 10:53:00,81.0,76.0,29.86,ESE,113,0.0,3.0,84,0.00,,,0.15,,2013-06-14 15:53:00,
2013-06-14 11:01:00,81.0,76.0,29.86,ESE,113,0.0,3.0,84,0.00,,,0.15,,2013-06-14 16:01:00,
2013-06-14 11:11:00,82.0,74.0,29.86,ENE,75,3.0,6.0,78,0.00,,,0.15,,2013-06-14 16:11:00,
2013-06-14 11:23:00,83.0,75.0,29.85,ESE,114,2.0,8.0,78,0.00,,,0.15,,2013-06-14 16:23:00,
2013-06-14 11:33:00,83.0,75.0,29.85,ESE,114,2.0,8.0,78,0.00,,,0.15,,2013-06-14 16:33:00,
2013-06-14 11:43:00,83.0,76.0,29.85,East,99,1.0,6.0,79,0.00,,,0.15,,2013-06-14 16:43:00,
2013-06-14 11:53:00,83.0,75.0,29.85,SE,131,1.0,4.0,77,0.00,,,0.15,,2013-06-14 16:53:00,
2013-06-14 12:02:00,83.0,75.0,29.85,SE,131,1.0,4.0,77,0.00,,,0.15,,2013-06-14 17:02:00,
2013-06-14 12:12:00,82.0,74.0,29.85,NE,43,1.0,5.0,78,0.00,,,0.15,,2013-06-14 17:12:00,
2013-06-14 12:22:00,84.0,76.0,29.85,WNW,293,0.0,2.0,76,0.00,,,0.15,,2013-06-14 17:22:00,
2013-06-14 12:34:00,84.0,76.0,29.85,WNW,293,0.0,2.0,76,0.00,,,0.15,,2013-06-14 17:34:00,
2013-06-14 12:43:00,84.0,74.0,29.85,ESE,103,2.0,4.0,72,0.00,,,0.15,,2013-06-14 17:43:00,
2013-06-14 12:53:00,86.0,75.0,29.85,East,82,1.0,5.0,70,0.00,,,0.15,,2013-06-14 17:53:00,
2013-06-14 13:02:00,86.0,75.0,29.85,East,82,1.0,5.0,70,0.00,,,0.15,,2013-06-14 18:02:00,
2013-06-14 13:11:00,87.0,76.0,29.84,SSE,153,0.0,6.0,69,0.00,,,0.15,,2013-06-14 18:11:00,
2013-06-14 13:22:00,87.0,73.0,29.84,SSE,148,1.0,4.0,64,0.00,,,0.15,,2013-06-14 18:22:00,
2013-06-14 13:32:00,88.0,75.0,29.84,SSW,205,1.0,4.0,65,0.00,,,0.15,,2013-06-14 18:32:00,
2013-06-14 13:43:00,88.0,75.0,29.84,SSW,205,1.0,4.0,65,0.00,,,0.15,,2013-06-14 18:43:00,
2013-06-14 13:52:00,89.0,75.0,29.84,East,100,0.0,3.0,63,0.00,,,0.15,,2013-06-14 18:52:00,
2013-06-14 14:01:00,89.0,75.0,29.84,East,100,0.0,3.0,63,0.00,,,0.15,,2013-06-14 19:01:00,
2013-06-14 14:11:00,87.0,73.0,29.83,ESE,103,2.0,5.0,63,0.00,,,0.15,,2013-06-14 19:11:00,
2013-06-14 14:22:00,87.0,74.0,29.83,NE,37,2.0,7.0,66,0.00,,,0.15,,2013-06-14 19:22:00,
2013-06-14 14:32:00,87.0,74.0,29.83,NE,37,2.0,7.0,66,0.00,,,0.15,,2013-06-14 19:32:00,
2013-06-14 14:43:00,87.0,75.0,29.83,ENE,72,1.0,4.0,67,0.00,,,0.15,,2013-06-14 19:43:00,
2013-06-14 14:53:00,89.0,75.0,29.83,ESE,113,1.0,3.0,64,0.00,,,0.15,,2013-06-14 19:53:00,
2013-06-14 15:02:00,89.0,75.0,29.83,ESE,113,1.0,3.0,64,0.00,,,0.15,,2013-06-14 20:02:00,
2013-06-14 15:11:00,86.0,73.0,29.82,WSW,250,0.0,3.0,66,0.00,,,0.15,,2013-06-14 20:11:00,
2013-06-14 15:22:00,87.0,74.0,29.83,NE,48,1.0,6.0,65,0.00,,,0.15,,2013-06-14 20:22:00,
2013-06-14 15:33:00,87.0,74.0,29.83,NE,48,1.0,6.0,65,0.00,,,0.15,,2013-06-14 20:33:00,
2013-06-14 15:43:00,89.0,74.0,29.83,WNW,284,1.0,4.0,62,0.00,,,0.15,,2013-06-14 20:43:00,
2013-06-14 15:53:00,90.0,74.0,29.83,East,96,0.0,3.0,59,0.00,,,0.15,,2013-06-14 20:53:00,
2013-06-14 16:02:00,90.0,74.0,29.83,East,96,0.0,3.0,59,0.00,,,0.15,,2013-06-14 21:02:00,
2013-06-14 16:12:00,89.0,72.0,29.83,ENE,77,2.0,6.0,57,0.00,,,0.15,,2013-06-14 21:12:00,
2013-06-14 16:22:00,90.0,73.0,29.83,NW,325,1.0,4.0,58,0.00,,,0.15,,2013-06-14 21:22:00,
2013-06-14 16:34:00,90.0,73.0,29.83,NW,325,1.0,4.0,58,0.00,,,0.15,,2013-06-14 21:34:00,
2013-06-14 16:42:00,88.0,70.0,29.83,East,90,2.0,5.0,56,0.00,,,0.15,,2013-06-14 21:42:00,
2013-06-14 16:52:00,88.0,71.0,29.83,NE,56,0.0,4.0,57,0.00,,,0.15,,2013-06-14 21:52:00,
2013-06-14 17:02:00,88.0,70.0,29.83,ESE,116,2.0,5.0,55,0.00,,,0.15,,2013-06-14 22:02:00,
2013-06-14 17:12:00,88.0,70.0,29.83,ESE,116,2.0,5.0,55,0.00,,,0.15,,2013-06-14 22:12:00,
2013-06-14 17:22:00,88.0,71.0,29.83,East,83,1.0,4.0,57,0.00,,,0.15,,2013-06-14 22:22:00,
2013-06-14 17:33:00,88.0,71.0,29.83,East,83,1.0,4.0,57,0.00,,,0.15,,2013-06-14 22:33:00,
2013-06-14 17:43:00,88.0,71.0,29.82,SE,130,0.0,6.0,57,0.00,,,0.15,,2013-06-14 22:43:00,
2013-06-14 17:53:00,89.0,71.0,29.82,ESE,105,1.0,3.0,56,0.00,,,0.15,,2013-06-14 22:53:00,
2013-06-14 18:02:00,87.0,71.0,29.83,East,86,0.0,3.0,59,0.00,,,0.15,,2013-06-14 23:02:00,
2013-06-14 18:12:00,87.0,71.0,29.83,East,86,0.0,3.0,59,0.00,,,0.15,,2013-06-14 23:12:00,
2013-06-14 18:22:00,88.0,70.0,29.83,SSE,160,0.0,2.0,56,0.00,,,0.15,,2013-06-14 23:22:00,
2013-06-14 18:33:00,88.0,70.0,29.83,SSE,160,0.0,2.0,56,0.00,,,0.15,,2013-06-14 23:33:00,
2013-06-14 18:43:00,87.0,70.0,29.83,NE,41,1.0,5.0,58,0.00,,,0.15,,2013-06-14 23:43:00,
2013-06-14 18:52:00,85.0,70.0,29.83,East,80,0.0,2.0,60,0.00,,,0.15,,2013-06-14 23:52:00,
2013-06-14 19:01:00,84.0,70.0,29.84,East,83,0.0,0.0,64,0.00,,,0.15,,2013-06-15 00:01:00,
2013-06-14 19:11:00,84.0,70.0,29.84,East,83,0.0,0.0,64,0.00,,,0.15,,2013-06-15 00:11:00,
2013-06-14 19:23:00,82.0,70.0,29.84,ESE,105,0.0,1.0,68,0.00,,,0.15,,2013-06-15 00:23:00,
2013-06-14 19:34:00,80.0,71.0,29.85,ESE,105,0.0,0.0,73,0.00,,,0.15,,2013-06-15 00:34:00,
2013-06-14 19:43:00,80.0,71.0,29.85,ESE,105,0.0,0.0,73,0.00,,,0.15,,2013-06-15 00:43:00,
2013-06-14 19:53:00,78.0,70.0,29.85,ESE,105,0.0,0.0,76,0.00,,,0.15,,2013-06-15 00:53:00,
2013-06-14 20:01:00,78.0,70.0,29.85,ESE,105,0.0,0.0,76,0.00,,,0.15,,2013-06-15 01:01:00,
2013-06-14 20:11:00,77.0,70.0,29.85,ESE,106,0.0,0.0,80,0.00,,,0.15,,2013-06-15 01:11:00,
2013-06-14 20:22:00,76.0,70.0,29.85,ESE,106,0.0,0.0,82,0.00,,,0.15,,2013-06-15 01:22:00,
2013-06-14 20:33:00,76.0,70.0,29.85,ESE,106,0.0,0.0,82,0.00,,,0.15,,2013-06-15 01:33:00,
2013-06-14 20:43:00,75.0,70.0,29.86,East,101,0.0,0.0,84,0.00,,,0.15,,2013-06-15 01:43:00,
2013-06-14 20:54:00,75.0,70.0,29.86,East,101,0.0,0.0,84,0.00,,,0.15,,2013-06-15 01:54:00,
2013-06-14 21:02:00,74.0,68.0,29.86,SSW,196,0.0,0.0,83,0.00,,,0.15,,2013-06-15 02:02:00,
2013-06-14 21:11:00,74.0,68.0,29.86,SSW,195,0.0,0.0,83,0.00,,,0.15,,2013-06-15 02:11:00,
2013-06-14 21:23:00,74.0,68.0,29.86,SSW,195,0.0,0.0,83,0.00,,,0.15,,2013-06-15 02:23:00,
2013-06-14 21:34:00,73.0,68.0,29.86,SSW,196,0.0,0.0,84,0.00,,,0.15,,2013-06-15 02:34:00,
2013-06-14 21:43:00,73.0,68.0,29.87,SSW,195,0.0,0.0,85,0.00,,,0.15,,2013-06-15 02:43:00,
2013-06-14 21:53:00,73.0,68.0,29.87,SSW,195,0.0,0.0,85,0.00,,,0.15,,2013-06-15 02:53:00,
2013-06-14 22:01:00,72.0,69.0,29.89,SSW,195,0.0,0.0,89,0.00,,,0.15,,2013-06-15 03:01:00,
2013-06-14 22:11:00,72.0,69.0,29.89,SSW,195,0.0,0.0,89,0.00,,,0.15,,2013-06-15 03:11:00,
2013-06-14 22:24:00,71.0,67.0,29.89,SSW,195,0.0,0.0,88,0.00,,,0.15,,2013-06-15 03:24:00,
2013-06-14 22:32:00,71.0,67.0,29.89,SSW,195,0.0,0.0,88,0.00,,,0.15,,2013-06-15 03:32:00,
2013-06-14 22:44:00,71.0,67.0,29.90,South,183,0.0,0.0,88,0.00,,,0.15,,2013-06-15 03:44:00,
2013-06-14 22:53:00,71.0,67.0,29.90,South,183,0.0,0.0,88,0.00,,,0.15,,2013-06-15 03:53:00,
2013-06-14 23:02:00,71.0,67.0,29.91,South,184,0.0,0.0,88,0.00,,,0.15,,2013-06-15 04:02:00,
2013-06-14 23:12:00,71.0,67.0,29.91,South,184,0.0,0.0,88,0.00,,,0.15,,2013-06-15 04:12:00,
2013-06-14 23:22:00,71.0,68.0,29.91,South,183,0.0,0.0,89,0.00,,,0.15,,2013-06-15 04:22:00,
2013-06-14 23:34:00,70.0,66.0,29.91,SSW,194,0.0,0.0,88,0.00,,,0.15,,2013-06-15 04:34:00,
2013-06-14 23:43:00,70.0,66.0,29.91,SSW,194,0.0,0.0,88,0.00,,,0.15,,2013-06-15 04:43:00,
2013-06-14 23:54:00,70.0,66.0,29.91,SSW,195,0.0,0.0,88,0.00,,,0.15,,2013-06-15 04:54:00,